sensor_id;sensor_type;location;lat;lon;timestamp;P1;durP1;ratioP1;P2;durP2;ratioP2
7116;SDS011;3600;48.568;7.870;2023-05-16T00:02:22;11.52;;;10.43;;
7116;SDS011;3600;48.568;7.870;2023-05-16T00:04:49;11.90;;;10.75;;
7116;SDS011;3600;48.568;7.870;2023-05-16T00:07:17;11.75;;;10.38;;
7116;SDS011;3600;48.568;7.870;2023-05-16T00:09:43;12.35;;;11.15;;
7116;SDS011;3600;48.568;7.870;2023-05-16T00:12:10;12.25;;;11.15;;
7116;SDS011;3600;48.568;7.870;2023-05-16T00:14:37;12.70;;;11.40;;
7116;SDS011;3600;48.568;7.870;2023-05-16T00:17:04;13.10;;;11.80;;
7116;SDS011;3600;48.568;7.870;2023-05-16T00:19:37;12.18;;;11.07;;
7116;SDS011;3600;48.568;7.870;2023-05-16T00:22:04;12.60;;;11.18;;
7116;SDS011;3600;48.568;7.870;2023-05-16T00:24:31;12.90;;;11.60;;
7116;SDS011;3600;48.568;7.870;2023-05-16T00:26:59;13.35;;;12.15;;
7116;SDS011;3600;48.568;7.870;2023-05-16T00:29:26;13.43;;;12.18;;
7116;SDS011;3600;48.568;7.870;2023-05-16T00:31:53;14.48;;;12.85;;
7116;SDS011;3600;48.568;7.870;2023-05-16T00:34:20;13.90;;;12.60;;
7116;SDS011;3600;48.568;7.870;2023-05-16T00:36:51;13.80;;;12.40;;
7116;SDS011;3600;48.568;7.870;2023-05-16T00:39:18;15.55;;;14.00;;
7116;SDS011;3600;48.568;7.870;2023-05-16T00:41:45;14.90;;;13.40;;
7116;SDS011;3600;48.568;7.870;2023-05-16T00:44:12;14.32;;;12.95;;
7116;SDS011;3600;48.568;7.870;2023-05-16T00:46:39;15.73;;;12.73;;
7116;SDS011;3600;48.568;7.870;2023-05-16T00:49:06;14.00;;;12.75;;
7116;SDS011;3600;48.568;7.870;2023-05-16T00:51:34;14.98;;;13.60;;
7116;SDS011;3600;48.568;7.870;2023-05-16T00:54:03;14.10;;;12.70;;
7116;SDS011;3600;48.568;7.870;2023-05-16T00:56:31;15.20;;;13.70;;
7116;SDS011;3600;48.568;7.870;2023-05-16T00:58:58;15.57;;;14.05;;
7116;SDS011;3600;48.568;7.870;2023-05-16T01:01:26;15.52;;;14.10;;
7116;SDS011;3600;48.568;7.870;2023-05-16T01:03:54;15.82;;;14.32;;
7116;SDS011;3600;48.568;7.870;2023-05-16T01:06:21;16.75;;;14.68;;
7116;SDS011;3600;48.568;7.870;2023-05-16T01:08:48;16.02;;;14.55;;
7116;SDS011;3600;48.568;7.870;2023-05-16T01:11:26;15.55;;;14.05;;
7116;SDS011;3600;48.568;7.870;2023-05-16T01:14:04;15.48;;;13.88;;
7116;SDS011;3600;48.568;7.870;2023-05-16T01:16:55;17.23;;;15.45;;
7116;SDS011;3600;48.568;7.870;2023-05-16T01:22:19;17.73;;;14.98;;
7116;SDS011;3600;48.568;7.870;2023-05-16T01:25:30;16.50;;;14.90;;
7116;SDS011;3600;48.568;7.870;2023-05-16T01:27:57;16.85;;;15.07;;
7116;SDS011;3600;48.568;7.870;2023-05-16T01:30:26;16.67;;;14.90;;
7116;SDS011;3600;48.568;7.870;2023-05-16T01:32:57;15.82;;;14.27;;
7116;SDS011;3600;48.568;7.870;2023-05-16T01:35:24;16.80;;;15.20;;
7116;SDS011;3600;48.568;7.870;2023-05-16T01:40:47;18.30;;;15.10;;
7116;SDS011;3600;48.568;7.870;2023-05-16T01:43:36;18.23;;;16.38;;
7116;SDS011;3600;48.568;7.870;2023-05-16T01:46:09;19.15;;;17.15;;
7116;SDS011;3600;48.568;7.870;2023-05-16T01:49:30;18.77;;;16.95;;
7116;SDS011;3600;48.568;7.870;2023-05-16T01:51:42;19.73;;;17.63;;
7116;SDS011;3600;48.568;7.870;2023-05-16T01:54:14;19.05;;;17.15;;
7116;SDS011;3600;48.568;7.870;2023-05-16T01:56:50;17.67;;;15.85;;
7116;SDS011;3600;48.568;7.870;2023-05-16T01:59:19;19.83;;;17.73;;
7116;SDS011;3600;48.568;7.870;2023-05-16T02:01:47;17.88;;;16.25;;
7116;SDS011;3600;48.568;7.870;2023-05-16T02:04:14;18.20;;;16.27;;
7116;SDS011;3600;48.568;7.870;2023-05-16T02:06:42;18.90;;;16.85;;
7116;SDS011;3600;48.568;7.870;2023-05-16T02:09:08;18.77;;;16.88;;
7116;SDS011;3600;48.568;7.870;2023-05-16T02:11:35;19.13;;;17.23;;
7116;SDS011;3600;48.568;7.870;2023-05-16T02:14:02;18.75;;;17.00;;
7116;SDS011;3600;48.568;7.870;2023-05-16T02:16:29;18.02;;;16.10;;
7116;SDS011;3600;48.568;7.870;2023-05-16T02:18:56;18.15;;;16.25;;
7116;SDS011;3600;48.568;7.870;2023-05-16T02:21:23;18.27;;;16.58;;
7116;SDS011;3600;48.568;7.870;2023-05-16T02:23:50;19.38;;;17.52;;
7116;SDS011;3600;48.568;7.870;2023-05-16T02:26:17;20.55;;;17.50;;
7116;SDS011;3600;48.568;7.870;2023-05-16T02:28:44;20.35;;;18.35;;
7116;SDS011;3600;48.568;7.870;2023-05-16T02:31:11;19.80;;;17.88;;
7116;SDS011;3600;48.568;7.870;2023-05-16T02:33:37;18.40;;;16.55;;
7116;SDS011;3600;48.568;7.870;2023-05-16T02:36:04;19.45;;;17.48;;
7116;SDS011;3600;48.568;7.870;2023-05-16T02:38:31;19.15;;;17.30;;
7116;SDS011;3600;48.568;7.870;2023-05-16T02:40:58;18.83;;;16.92;;
7116;SDS011;3600;48.568;7.870;2023-05-16T02:43:25;19.50;;;17.40;;
7116;SDS011;3600;48.568;7.870;2023-05-16T02:45:52;20.65;;;18.45;;
7116;SDS011;3600;48.568;7.870;2023-05-16T02:48:18;21.88;;;19.73;;
7116;SDS011;3600;48.568;7.870;2023-05-16T02:50:45;21.23;;;19.02;;
7116;SDS011;3600;48.568;7.870;2023-05-16T02:53:12;21.55;;;19.30;;
7116;SDS011;3600;48.568;7.870;2023-05-16T02:55:39;21.58;;;19.23;;
7116;SDS011;3600;48.568;7.870;2023-05-16T02:58:06;20.38;;;18.27;;
7116;SDS011;3600;48.568;7.870;2023-05-16T03:00:33;20.50;;;18.35;;
7116;SDS011;3600;48.568;7.870;2023-05-16T03:02:59;20.10;;;18.05;;
7116;SDS011;3600;48.568;7.870;2023-05-16T03:05:26;20.05;;;18.05;;
7116;SDS011;3600;48.568;7.870;2023-05-16T03:07:54;19.73;;;17.83;;
7116;SDS011;3600;48.568;7.870;2023-05-16T03:10:20;20.83;;;18.73;;
7116;SDS011;3600;48.568;7.870;2023-05-16T03:12:47;20.73;;;18.75;;
7116;SDS011;3600;48.568;7.870;2023-05-16T03:15:14;22.20;;;19.80;;
7116;SDS011;3600;48.568;7.870;2023-05-16T03:17:42;20.67;;;18.60;;
7116;SDS011;3600;48.568;7.870;2023-05-16T03:20:09;79.82;;;61.65;;
7116;SDS011;3600;48.568;7.870;2023-05-16T03:22:36;34.95;;;27.70;;
7116;SDS011;3600;48.568;7.870;2023-05-16T03:25:03;22.73;;;20.50;;
7116;SDS011;3600;48.568;7.870;2023-05-16T03:27:30;21.08;;;18.98;;
7116;SDS011;3600;48.568;7.870;2023-05-16T03:29:57;21.45;;;18.23;;
7116;SDS011;3600;48.568;7.870;2023-05-16T03:32:24;20.92;;;18.70;;
7116;SDS011;3600;48.568;7.870;2023-05-16T03:34:51;23.33;;;20.80;;
7116;SDS011;3600;48.568;7.870;2023-05-16T03:37:17;25.80;;;20.90;;
7116;SDS011;3600;48.568;7.870;2023-05-16T03:39:44;24.05;;;21.20;;
7116;SDS011;3600;48.568;7.870;2023-05-16T03:42:11;29.27;;;22.45;;
7116;SDS011;3600;48.568;7.870;2023-05-16T03:44:38;29.15;;;22.77;;
7116;SDS011;3600;48.568;7.870;2023-05-16T03:47:04;29.92;;;23.23;;
7116;SDS011;3600;48.568;7.870;2023-05-16T03:49:31;26.20;;;20.98;;
7116;SDS011;3600;48.568;7.870;2023-05-16T03:51:58;25.83;;;21.42;;
7116;SDS011;3600;48.568;7.870;2023-05-16T03:54:25;25.98;;;22.42;;
7116;SDS011;3600;48.568;7.870;2023-05-16T03:56:52;28.63;;;22.67;;
7116;SDS011;3600;48.568;7.870;2023-05-16T03:59:18;29.67;;;22.30;;
7116;SDS011;3600;48.568;7.870;2023-05-16T04:01:45;29.20;;;23.73;;
7116;SDS011;3600;48.568;7.870;2023-05-16T04:04:12;31.65;;;23.55;;
7116;SDS011;3600;48.568;7.870;2023-05-16T04:06:39;27.65;;;23.00;;
7116;SDS011;3600;48.568;7.870;2023-05-16T04:09:06;30.40;;;24.00;;
7116;SDS011;3600;48.568;7.870;2023-05-16T04:11:33;31.08;;;24.65;;
7116;SDS011;3600;48.568;7.870;2023-05-16T04:14:01;29.88;;;22.85;;
7116;SDS011;3600;48.568;7.870;2023-05-16T04:16:28;30.50;;;23.95;;
7116;SDS011;3600;48.568;7.870;2023-05-16T04:18:55;30.23;;;22.98;;
7116;SDS011;3600;48.568;7.870;2023-05-16T04:21:22;27.58;;;21.92;;
7116;SDS011;3600;48.568;7.870;2023-05-16T04:23:49;28.85;;;21.58;;
7116;SDS011;3600;48.568;7.870;2023-05-16T04:26:15;27.95;;;21.63;;
7116;SDS011;3600;48.568;7.870;2023-05-16T04:28:42;26.35;;;21.85;;
7116;SDS011;3600;48.568;7.870;2023-05-16T04:31:09;25.00;;;21.60;;
7116;SDS011;3600;48.568;7.870;2023-05-16T04:33:36;24.17;;;20.33;;
7116;SDS011;3600;48.568;7.870;2023-05-16T04:36:03;25.00;;;19.80;;
7116;SDS011;3600;48.568;7.870;2023-05-16T04:38:31;26.75;;;21.42;;
7116;SDS011;3600;48.568;7.870;2023-05-16T04:40:58;24.00;;;20.02;;
7116;SDS011;3600;48.568;7.870;2023-05-16T04:43:25;25.75;;;21.55;;
7116;SDS011;3600;48.568;7.870;2023-05-16T04:45:51;27.42;;;20.95;;
7116;SDS011;3600;48.568;7.870;2023-05-16T04:48:23;31.00;;;21.13;;
7116;SDS011;3600;48.568;7.870;2023-05-16T04:50:50;25.40;;;20.92;;
7116;SDS011;3600;48.568;7.870;2023-05-16T04:53:17;26.17;;;21.50;;
7116;SDS011;3600;48.568;7.870;2023-05-16T04:55:44;28.48;;;21.98;;
7116;SDS011;3600;48.568;7.870;2023-05-16T04:58:10;29.10;;;22.17;;
7116;SDS011;3600;48.568;7.870;2023-05-16T05:00:37;28.90;;;21.92;;
7116;SDS011;3600;48.568;7.870;2023-05-16T05:03:04;28.38;;;20.70;;
7116;SDS011;3600;48.568;7.870;2023-05-16T05:05:32;28.60;;;21.55;;
7116;SDS011;3600;48.568;7.870;2023-05-16T05:07:59;26.42;;;21.30;;
7116;SDS011;3600;48.568;7.870;2023-05-16T05:10:26;29.25;;;21.02;;
7116;SDS011;3600;48.568;7.870;2023-05-16T05:12:53;25.73;;;20.75;;
7116;SDS011;3600;48.568;7.870;2023-05-16T05:15:20;24.00;;;18.83;;
7116;SDS011;3600;48.568;7.870;2023-05-16T05:17:47;24.42;;;20.17;;
7116;SDS011;3600;48.568;7.870;2023-05-16T05:20:14;27.00;;;19.35;;
7116;SDS011;3600;48.568;7.870;2023-05-16T05:22:40;27.20;;;21.25;;
7116;SDS011;3600;48.568;7.870;2023-05-16T05:25:07;27.05;;;21.77;;
7116;SDS011;3600;48.568;7.870;2023-05-16T05:27:34;25.83;;;20.10;;
7116;SDS011;3600;48.568;7.870;2023-05-16T05:30:01;26.23;;;20.98;;
7116;SDS011;3600;48.568;7.870;2023-05-16T05:32:29;22.45;;;17.63;;
7116;SDS011;3600;48.568;7.870;2023-05-16T05:34:56;28.60;;;20.55;;
7116;SDS011;3600;48.568;7.870;2023-05-16T05:37:23;21.27;;;18.40;;
7116;SDS011;3600;48.568;7.870;2023-05-16T05:39:50;25.92;;;20.15;;
7116;SDS011;3600;48.568;7.870;2023-05-16T05:42:17;23.92;;;17.92;;
7116;SDS011;3600;48.568;7.870;2023-05-16T05:44:44;22.67;;;18.65;;
7116;SDS011;3600;48.568;7.870;2023-05-16T05:47:11;22.63;;;17.90;;
7116;SDS011;3600;48.568;7.870;2023-05-16T05:49:38;24.38;;;18.95;;
7116;SDS011;3600;48.568;7.870;2023-05-16T05:52:05;23.65;;;17.83;;
7116;SDS011;3600;48.568;7.870;2023-05-16T05:54:32;21.40;;;18.17;;
7116;SDS011;3600;48.568;7.870;2023-05-16T05:56:59;23.35;;;18.45;;
7116;SDS011;3600;48.568;7.870;2023-05-16T05:59:26;20.08;;;17.42;;
7116;SDS011;3600;48.568;7.870;2023-05-16T06:01:53;21.50;;;17.27;;
7116;SDS011;3600;48.568;7.870;2023-05-16T06:04:20;25.30;;;18.20;;
7116;SDS011;3600;48.568;7.870;2023-05-16T06:06:47;25.10;;;19.65;;
7116;SDS011;3600;48.568;7.870;2023-05-16T06:09:14;26.20;;;18.70;;
7116;SDS011;3600;48.568;7.870;2023-05-16T06:11:41;26.65;;;18.67;;
7116;SDS011;3600;48.568;7.870;2023-05-16T06:14:11;25.27;;;17.75;;
7116;SDS011;3600;48.568;7.870;2023-05-16T06:16:39;23.98;;;17.88;;
7116;SDS011;3600;48.568;7.870;2023-05-16T06:19:06;21.52;;;17.50;;
7116;SDS011;3600;48.568;7.870;2023-05-16T06:21:33;22.23;;;17.63;;
7116;SDS011;3600;48.568;7.870;2023-05-16T06:24:00;19.65;;;15.90;;
7116;SDS011;3600;48.568;7.870;2023-05-16T06:26:27;20.67;;;16.55;;
7116;SDS011;3600;48.568;7.870;2023-05-16T06:28:53;23.08;;;16.75;;
7116;SDS011;3600;48.568;7.870;2023-05-16T06:31:20;20.73;;;16.05;;
7116;SDS011;3600;48.568;7.870;2023-05-16T06:33:47;19.42;;;15.50;;
7116;SDS011;3600;48.568;7.870;2023-05-16T06:36:14;19.98;;;16.40;;
7116;SDS011;3600;48.568;7.870;2023-05-16T06:38:41;18.52;;;16.27;;
7116;SDS011;3600;48.568;7.870;2023-05-16T06:41:08;20.27;;;14.93;;
7116;SDS011;3600;48.568;7.870;2023-05-16T06:43:35;19.50;;;15.73;;
7116;SDS011;3600;48.568;7.870;2023-05-16T06:46:01;19.48;;;15.55;;
7116;SDS011;3600;48.568;7.870;2023-05-16T06:48:29;16.75;;;14.18;;
7116;SDS011;3600;48.568;7.870;2023-05-16T06:50:56;17.80;;;14.05;;
7116;SDS011;3600;48.568;7.870;2023-05-16T06:53:22;19.45;;;14.95;;
7116;SDS011;3600;48.568;7.870;2023-05-16T06:55:49;21.55;;;14.77;;
7116;SDS011;3600;48.568;7.870;2023-05-16T06:58:16;17.67;;;15.38;;
7116;SDS011;3600;48.568;7.870;2023-05-16T07:00:43;20.15;;;15.05;;
7116;SDS011;3600;48.568;7.870;2023-05-16T07:03:10;17.17;;;13.90;;
7116;SDS011;3600;48.568;7.870;2023-05-16T07:05:38;18.88;;;15.02;;
7116;SDS011;3600;48.568;7.870;2023-05-16T07:08:05;17.65;;;14.27;;
7116;SDS011;3600;48.568;7.870;2023-05-16T07:10:34;16.83;;;13.90;;
7116;SDS011;3600;48.568;7.870;2023-05-16T07:13:00;16.42;;;13.02;;
7116;SDS011;3600;48.568;7.870;2023-05-16T07:15:27;17.48;;;14.20;;
7116;SDS011;3600;48.568;7.870;2023-05-16T07:17:55;18.45;;;14.15;;
7116;SDS011;3600;48.568;7.870;2023-05-16T07:20:22;19.30;;;13.50;;
7116;SDS011;3600;48.568;7.870;2023-05-16T07:22:49;18.27;;;13.05;;
7116;SDS011;3600;48.568;7.870;2023-05-16T07:25:16;16.13;;;13.55;;
7116;SDS011;3600;48.568;7.870;2023-05-16T07:27:43;16.00;;;12.73;;
7116;SDS011;3600;48.568;7.870;2023-05-16T07:30:11;15.15;;;12.95;;
7116;SDS011;3600;48.568;7.870;2023-05-16T07:32:38;16.00;;;13.27;;
7116;SDS011;3600;48.568;7.870;2023-05-16T07:35:06;15.23;;;12.88;;
7116;SDS011;3600;48.568;7.870;2023-05-16T07:37:33;17.17;;;12.57;;
7116;SDS011;3600;48.568;7.870;2023-05-16T07:40:00;15.20;;;13.15;;
7116;SDS011;3600;48.568;7.870;2023-05-16T07:42:27;19.05;;;13.52;;
7116;SDS011;3600;48.568;7.870;2023-05-16T07:44:54;18.20;;;13.82;;
7116;SDS011;3600;48.568;7.870;2023-05-16T07:47:20;14.40;;;12.57;;
7116;SDS011;3600;48.568;7.870;2023-05-16T07:49:47;14.07;;;11.60;;
7116;SDS011;3600;48.568;7.870;2023-05-16T07:52:14;16.25;;;12.80;;
7116;SDS011;3600;48.568;7.870;2023-05-16T07:54:41;16.38;;;13.52;;
7116;SDS011;3600;48.568;7.870;2023-05-16T07:57:08;14.35;;;12.15;;
7116;SDS011;3600;48.568;7.870;2023-05-16T07:59:35;15.75;;;12.18;;
7116;SDS011;3600;48.568;7.870;2023-05-16T08:02:01;14.32;;;12.80;;
7116;SDS011;3600;48.568;7.870;2023-05-16T08:04:28;15.88;;;12.82;;
7116;SDS011;3600;48.568;7.870;2023-05-16T08:06:55;15.40;;;13.20;;
7116;SDS011;3600;48.568;7.870;2023-05-16T08:09:22;16.73;;;14.70;;
7116;SDS011;3600;48.568;7.870;2023-05-16T08:11:49;18.70;;;13.52;;
7116;SDS011;3600;48.568;7.870;2023-05-16T08:14:16;15.95;;;13.55;;
7116;SDS011;3600;48.568;7.870;2023-05-16T08:16:42;19.30;;;14.85;;
7116;SDS011;3600;48.568;7.870;2023-05-16T08:19:10;18.77;;;14.05;;
7116;SDS011;3600;48.568;7.870;2023-05-16T08:21:37;16.10;;;13.63;;
7116;SDS011;3600;48.568;7.870;2023-05-16T08:24:04;19.02;;;14.68;;
7116;SDS011;3600;48.568;7.870;2023-05-16T08:26:31;18.48;;;14.60;;
7116;SDS011;3600;48.568;7.870;2023-05-16T08:28:58;19.63;;;15.13;;
7116;SDS011;3600;48.568;7.870;2023-05-16T08:31:25;17.83;;;14.73;;
7116;SDS011;3600;48.568;7.870;2023-05-16T08:33:52;21.20;;;14.77;;
7116;SDS011;3600;48.568;7.870;2023-05-16T08:36:18;18.35;;;15.32;;
7116;SDS011;3600;48.568;7.870;2023-05-16T08:38:46;18.05;;;15.25;;
7116;SDS011;3600;48.568;7.870;2023-05-16T08:41:15;20.77;;;15.32;;
7116;SDS011;3600;48.568;7.870;2023-05-16T08:43:41;20.13;;;15.88;;
7116;SDS011;3600;48.568;7.870;2023-05-16T08:46:08;17.10;;;14.38;;
7116;SDS011;3600;48.568;7.870;2023-05-16T08:48:36;20.40;;;16.15;;
7116;SDS011;3600;48.568;7.870;2023-05-16T08:51:06;21.33;;;16.42;;
7116;SDS011;3600;48.568;7.870;2023-05-16T08:53:38;18.05;;;14.88;;
7116;SDS011;3600;48.568;7.870;2023-05-16T08:56:11;17.85;;;15.73;;
7116;SDS011;3600;48.568;7.870;2023-05-16T08:58:38;19.42;;;17.02;;
7116;SDS011;3600;48.568;7.870;2023-05-16T09:01:06;22.83;;;17.20;;
7116;SDS011;3600;48.568;7.870;2023-05-16T09:03:35;22.55;;;17.05;;
7116;SDS011;3600;48.568;7.870;2023-05-16T09:06:06;19.15;;;15.88;;
7116;SDS011;3600;48.568;7.870;2023-05-16T09:08:33;21.50;;;16.85;;
7116;SDS011;3600;48.568;7.870;2023-05-16T09:11:01;24.35;;;17.08;;
7116;SDS011;3600;48.568;7.870;2023-05-16T09:13:28;21.40;;;16.58;;
7116;SDS011;3600;48.568;7.870;2023-05-16T09:16:12;17.63;;;14.73;;
7116;SDS011;3600;48.568;7.870;2023-05-16T09:18:41;20.58;;;16.13;;
7116;SDS011;3600;48.568;7.870;2023-05-16T09:21:11;18.80;;;15.07;;
7116;SDS011;3600;48.568;7.870;2023-05-16T09:23:39;18.67;;;15.45;;
7116;SDS011;3600;48.568;7.870;2023-05-16T09:26:07;21.25;;;15.68;;
7116;SDS011;3600;48.568;7.870;2023-05-16T09:28:36;18.30;;;15.02;;
7116;SDS011;3600;48.568;7.870;2023-05-16T09:31:18;18.98;;;15.00;;
7116;SDS011;3600;48.568;7.870;2023-05-16T09:33:52;19.45;;;14.55;;
7116;SDS011;3600;48.568;7.870;2023-05-16T09:36:21;18.60;;;14.73;;
7116;SDS011;3600;48.568;7.870;2023-05-16T09:38:51;18.80;;;15.00;;
7116;SDS011;3600;48.568;7.870;2023-05-16T09:41:20;18.70;;;13.57;;
7116;SDS011;3600;48.568;7.870;2023-05-16T09:43:48;16.80;;;13.38;;
7116;SDS011;3600;48.568;7.870;2023-05-16T09:46:15;16.23;;;13.18;;
7116;SDS011;3600;48.568;7.870;2023-05-16T09:48:45;17.10;;;12.50;;
7116;SDS011;3600;48.568;7.870;2023-05-16T09:51:13;13.88;;;10.95;;
7116;SDS011;3600;48.568;7.870;2023-05-16T09:53:40;12.40;;;10.00;;
7116;SDS011;3600;48.568;7.870;2023-05-16T09:56:09;10.25;;;9.15;;
7116;SDS011;3600;48.568;7.870;2023-05-16T09:58:38;10.63;;;9.63;;
7116;SDS011;3600;48.568;7.870;2023-05-16T10:01:06;10.30;;;8.93;;
7116;SDS011;3600;48.568;7.870;2023-05-16T10:03:34;8.45;;;7.53;;
7116;SDS011;3600;48.568;7.870;2023-05-16T10:06:03;8.27;;;7.38;;
7116;SDS011;3600;48.568;7.870;2023-05-16T10:08:32;8.05;;;7.22;;
7116;SDS011;3600;48.568;7.870;2023-05-16T10:11:02;9.13;;;7.53;;
7116;SDS011;3600;48.568;7.870;2023-05-16T10:13:30;8.10;;;6.80;;
7116;SDS011;3600;48.568;7.870;2023-05-16T10:15:59;6.45;;;5.85;;
7116;SDS011;3600;48.568;7.870;2023-05-16T10:18:38;5.90;;;5.30;;
7116;SDS011;3600;48.568;7.870;2023-05-16T10:21:12;5.68;;;5.18;;
7116;SDS011;3600;48.568;7.870;2023-05-16T10:23:42;3.55;;;3.25;;
7116;SDS011;3600;48.568;7.870;2023-05-16T10:26:13;2.58;;;2.38;;
7116;SDS011;3600;48.568;7.870;2023-05-16T10:28:42;2.00;;;1.80;;
7116;SDS011;3600;48.568;7.870;2023-05-16T10:31:10;1.70;;;1.60;;
7116;SDS011;3600;48.568;7.870;2023-05-16T10:33:38;1.73;;;1.63;;
7116;SDS011;3600;48.568;7.870;2023-05-16T10:36:05;2.00;;;1.90;;
7116;SDS011;3600;48.568;7.870;2023-05-16T10:38:34;1.50;;;1.40;;
7116;SDS011;3600;48.568;7.870;2023-05-16T10:41:02;1.50;;;1.40;;
7116;SDS011;3600;48.568;7.870;2023-05-16T10:43:30;1.45;;;1.35;;
7116;SDS011;3600;48.568;7.870;2023-05-16T10:46:01;2.25;;;1.60;;
7116;SDS011;3600;48.568;7.870;2023-05-16T10:48:48;1.48;;;1.38;;
7116;SDS011;3600;48.568;7.870;2023-05-16T10:53:54;1.52;;;1.42;;
7116;SDS011;3600;48.568;7.870;2023-05-16T10:56:31;1.05;;;1.05;;
7116;SDS011;3600;48.568;7.870;2023-05-16T10:58:58;1.40;;;1.33;;
7116;SDS011;3600;48.568;7.870;2023-05-16T11:01:29;1.38;;;1.20;;
7116;SDS011;3600;48.568;7.870;2023-05-16T11:04:01;1.73;;;1.63;;
7116;SDS011;3600;48.568;7.870;2023-05-16T11:11:40;0.90;;;0.90;;
7116;SDS011;3600;48.568;7.870;2023-05-16T11:17:02;2.15;;;1.27;;
7116;SDS011;3600;48.568;7.870;2023-05-16T11:19:47;1.30;;;1.20;;
7116;SDS011;3600;48.568;7.870;2023-05-16T11:25:17;1.08;;;1.08;;
7116;SDS011;3600;48.568;7.870;2023-05-16T11:27:47;2.17;;;1.60;;
7116;SDS011;3600;48.568;7.870;2023-05-16T11:30:15;1.70;;;1.60;;
7116;SDS011;3600;48.568;7.870;2023-05-16T11:32:47;0.80;;;0.80;;
7116;SDS011;3600;48.568;7.870;2023-05-16T11:35:15;1.30;;;1.20;;
7116;SDS011;3600;48.568;7.870;2023-05-16T11:37:43;1.13;;;0.80;;
7116;SDS011;3600;48.568;7.870;2023-05-16T11:40:11;2.13;;;0.80;;
7116;SDS011;3600;48.568;7.870;2023-05-16T11:42:40;0.82;;;0.82;;
7116;SDS011;3600;48.568;7.870;2023-05-16T11:45:16;1.88;;;0.95;;
7116;SDS011;3600;48.568;7.870;2023-05-16T11:47:46;2.55;;;0.77;;
7116;SDS011;3600;48.568;7.870;2023-05-16T11:50:14;1.48;;;0.95;;
7116;SDS011;3600;48.568;7.870;2023-05-16T11:52:46;0.70;;;0.70;;
7116;SDS011;3600;48.568;7.870;2023-05-16T11:55:22;0.80;;;0.80;;
7116;SDS011;3600;48.568;7.870;2023-05-16T11:58:07;0.60;;;0.60;;
7116;SDS011;3600;48.568;7.870;2023-05-16T12:00:35;0.60;;;0.60;;
7116;SDS011;3600;48.568;7.870;2023-05-16T12:03:02;0.70;;;0.70;;
7116;SDS011;3600;48.568;7.870;2023-05-16T12:05:31;1.50;;;0.70;;
7116;SDS011;3600;48.568;7.870;2023-05-16T12:08:00;0.82;;;0.80;;
7116;SDS011;3600;48.568;7.870;2023-05-16T12:10:30;2.08;;;1.00;;
7116;SDS011;3600;48.568;7.870;2023-05-16T12:13:00;1.23;;;0.95;;
7116;SDS011;3600;48.568;7.870;2023-05-16T12:15:27;1.88;;;0.73;;
7116;SDS011;3600;48.568;7.870;2023-05-16T12:17:55;0.93;;;0.88;;
7116;SDS011;3600;48.568;7.870;2023-05-16T12:20:22;1.00;;;0.95;;
7116;SDS011;3600;48.568;7.870;2023-05-16T12:22:51;0.85;;;0.85;;
7116;SDS011;3600;48.568;7.870;2023-05-16T12:25:24;1.05;;;1.05;;
7116;SDS011;3600;48.568;7.870;2023-05-16T12:27:58;1.50;;;1.05;;
7116;SDS011;3600;48.568;7.870;2023-05-16T12:30:27;1.90;;;1.30;;
7116;SDS011;3600;48.568;7.870;2023-05-16T12:35:33;3.05;;;1.08;;
7116;SDS011;3600;48.568;7.870;2023-05-16T12:38:04;1.02;;;1.02;;
7116;SDS011;3600;48.568;7.870;2023-05-16T12:40:33;1.05;;;0.98;;
7116;SDS011;3600;48.568;7.870;2023-05-16T12:43:02;1.15;;;1.10;;
7116;SDS011;3600;48.568;7.870;2023-05-16T12:45:29;1.15;;;1.05;;
7116;SDS011;3600;48.568;7.870;2023-05-16T12:48:03;0.75;;;0.75;;
7116;SDS011;3600;48.568;7.870;2023-05-16T12:50:32;0.95;;;0.90;;
7116;SDS011;3600;48.568;7.870;2023-05-16T12:52:59;1.63;;;0.80;;
7116;SDS011;3600;48.568;7.870;2023-05-16T12:55:26;1.02;;;0.95;;
7116;SDS011;3600;48.568;7.870;2023-05-16T12:57:54;1.63;;;1.52;;
7116;SDS011;3600;48.568;7.870;2023-05-16T13:00:22;1.80;;;1.05;;
7116;SDS011;3600;48.568;7.870;2023-05-16T13:02:49;0.90;;;0.90;;
7116;SDS011;3600;48.568;7.870;2023-05-16T13:05:17;1.30;;;1.00;;
7116;SDS011;3600;48.568;7.870;2023-05-16T13:07:45;1.40;;;1.30;;
7116;SDS011;3600;48.568;7.870;2023-05-16T13:10:12;1.20;;;1.20;;
7116;SDS011;3600;48.568;7.870;2023-05-16T13:12:39;1.30;;;1.20;;
7116;SDS011;3600;48.568;7.870;2023-05-16T13:15:08;2.45;;;1.33;;
7116;SDS011;3600;48.568;7.870;2023-05-16T13:17:37;1.77;;;1.00;;
7116;SDS011;3600;48.568;7.870;2023-05-16T13:20:05;0.90;;;0.90;;
7116;SDS011;3600;48.568;7.870;2023-05-16T13:22:38;0.90;;;0.85;;
7116;SDS011;3600;48.568;7.870;2023-05-16T13:25:06;1.10;;;1.00;;
7116;SDS011;3600;48.568;7.870;2023-05-16T13:27:34;2.15;;;1.88;;
7116;SDS011;3600;48.568;7.870;2023-05-16T13:30:01;1.73;;;1.10;;
7116;SDS011;3600;48.568;7.870;2023-05-16T13:32:29;1.30;;;1.20;;
7116;SDS011;3600;48.568;7.870;2023-05-16T13:34:56;3.15;;;1.75;;
7116;SDS011;3600;48.568;7.870;2023-05-16T13:37:22;2.10;;;1.33;;
7116;SDS011;3600;48.568;7.870;2023-05-16T13:39:49;3.13;;;2.03;;
7116;SDS011;3600;48.568;7.870;2023-05-16T13:42:17;2.63;;;1.10;;
7116;SDS011;3600;48.568;7.870;2023-05-16T13:44:44;1.52;;;1.42;;
7116;SDS011;3600;48.568;7.870;2023-05-16T13:47:11;1.25;;;1.08;;
7116;SDS011;3600;48.568;7.870;2023-05-16T13:49:38;1.70;;;1.38;;
7116;SDS011;3600;48.568;7.870;2023-05-16T13:52:05;1.45;;;1.25;;
7116;SDS011;3600;48.568;7.870;2023-05-16T13:54:32;1.27;;;1.20;;
7116;SDS011;3600;48.568;7.870;2023-05-16T13:56:58;1.77;;;1.50;;
7116;SDS011;3600;48.568;7.870;2023-05-16T13:59:27;1.50;;;1.40;;
7116;SDS011;3600;48.568;7.870;2023-05-16T14:02:14;1.65;;;1.20;;
7116;SDS011;3600;48.568;7.870;2023-05-16T14:04:41;1.60;;;1.50;;
7116;SDS011;3600;48.568;7.870;2023-05-16T14:07:07;1.88;;;1.50;;
7116;SDS011;3600;48.568;7.870;2023-05-16T14:09:34;1.90;;;1.70;;
7116;SDS011;3600;48.568;7.870;2023-05-16T14:12:07;3.80;;;2.05;;
7116;SDS011;3600;48.568;7.870;2023-05-16T14:14:34;2.40;;;1.83;;
7116;SDS011;3600;48.568;7.870;2023-05-16T14:17:02;1.77;;;1.67;;
7116;SDS011;3600;48.568;7.870;2023-05-16T14:19:29;3.05;;;1.80;;
7116;SDS011;3600;48.568;7.870;2023-05-16T14:21:57;3.17;;;1.85;;
7116;SDS011;3600;48.568;7.870;2023-05-16T14:24:23;2.45;;;1.77;;
7116;SDS011;3600;48.568;7.870;2023-05-16T14:26:50;4.40;;;1.95;;
7116;SDS011;3600;48.568;7.870;2023-05-16T14:29:23;2.50;;;2.30;;
7116;SDS011;3600;48.568;7.870;2023-05-16T14:31:51;2.50;;;2.30;;
7116;SDS011;3600;48.568;7.870;2023-05-16T14:34:18;3.25;;;2.10;;
7116;SDS011;3600;48.568;7.870;2023-05-16T14:36:45;2.50;;;1.98;;
7116;SDS011;3600;48.568;7.870;2023-05-16T14:39:13;3.90;;;1.92;;
7116;SDS011;3600;48.568;7.870;2023-05-16T14:41:39;2.15;;;1.80;;
7116;SDS011;3600;48.568;7.870;2023-05-16T14:44:06;2.70;;;2.00;;
7116;SDS011;3600;48.568;7.870;2023-05-16T14:46:33;3.15;;;1.80;;
7116;SDS011;3600;48.568;7.870;2023-05-16T14:49:00;2.47;;;1.95;;
7116;SDS011;3600;48.568;7.870;2023-05-16T14:51:27;2.13;;;1.80;;
7116;SDS011;3600;48.568;7.870;2023-05-16T14:53:54;2.97;;;2.28;;
7116;SDS011;3600;48.568;7.870;2023-05-16T14:56:21;3.50;;;1.92;;
7116;SDS011;3600;48.568;7.870;2023-05-16T14:58:48;3.97;;;2.50;;
7116;SDS011;3600;48.568;7.870;2023-05-16T15:01:14;5.10;;;1.95;;
7116;SDS011;3600;48.568;7.870;2023-05-16T15:03:41;3.00;;;1.70;;
7116;SDS011;3600;48.568;7.870;2023-05-16T15:06:21;3.75;;;2.20;;
7116;SDS011;3600;48.568;7.870;2023-05-16T15:08:48;3.17;;;2.03;;
7116;SDS011;3600;48.568;7.870;2023-05-16T15:11:15;5.43;;;2.63;;
7116;SDS011;3600;48.568;7.870;2023-05-16T15:13:42;5.35;;;2.33;;
7116;SDS011;3600;48.568;7.870;2023-05-16T15:16:09;1.77;;;1.63;;
7116;SDS011;3600;48.568;7.870;2023-05-16T15:18:36;1.75;;;1.60;;
7116;SDS011;3600;48.568;7.870;2023-05-16T15:21:03;2.42;;;1.77;;
7116;SDS011;3600;48.568;7.870;2023-05-16T15:23:29;4.75;;;1.95;;
7116;SDS011;3600;48.568;7.870;2023-05-16T15:25:56;4.25;;;2.22;;
7116;SDS011;3600;48.568;7.870;2023-05-16T15:28:23;2.70;;;1.80;;